Time;durP1;ratioP1;P1;durP2;ratioP2;P2;SDS_P1;SDS_P2;PMS_P1;PMS_P2;Temp;Humidity;BMP_temperature;BMP_pressure;BME280_temperature;BME280_humidity;BME280_pressure;Samples;Min_cycle;Max_cycle;Signal;HPM_P1;HPM_P2
2023/10/31 00:01:29;;;;;;;12.70;5.97;;;;;;;;;;4364469;32;318560;-86
2023/10/31 00:03:55;;;;;;;12.87;6.13;;;;;;;;;;4374864;32;317688;-88
2023/10/31 00:06:23;;;;;;;10.20;6.60;;;;;;;;;;4356611;32;318139;-85
2023/10/31 00:08:50;;;;;;;14.27;6.13;;;;;;;;;;4375126;32;318581;-87
2023/10/31 00:11:17;;;;;;;7.63;5.63;;;;;;;;;;4364978;32;318481;-86
2023/10/31 00:13:43;;;;;;;10.63;6.00;;;;;;;;;;4375413;32;317153;-87
2023/10/31 00:16:10;;;;;;;15.50;6.20;;;;;;;;;;4361990;32;318504;-94
2023/10/31 00:18:37;;;;;;;11.67;5.77;;;;;;;;;;4375307;32;318693;-88
2023/10/31 00:21:05;;;;;;;11.90;5.70;;;;;;;;;;4362929;32;352172;-89
2023/10/31 00:23:33;;;;;;;11.77;5.97;;;;;;;;;;4376500;32;318096;-86
2023/10/31 00:26:00;;;;;;;11.27;5.83;;;;;;;;;;4375919;32;318640;-87
2023/10/31 00:28:26;;;;;;;9.00;5.67;;;;;;;;;;4345802;32;318490;-86
2023/10/31 00:30:55;;;;;;;10.07;5.80;;;;;;;;;;4358410;32;352840;-88
2023/10/31 00:33:21;;;;;;;8.83;5.70;;;;;;;;;;4349576;32;318547;-88
2023/10/31 00:35:48;;;;;;;11.37;7.30;;;;;;;;;;4364141;32;317338;-86
2023/10/31 00:38:15;;;;;;;16.13;7.93;;;;;;;;;;4355971;32;318530;-91
2023/10/31 00:40:43;;;;;;;16.67;8.07;;;;;;;;;;4374913;32;318878;-86
2023/10/31 00:43:09;;;;;;;9.93;7.73;;;;;;;;;;4364055;32;318709;-88
2023/10/31 00:45:36;;;;;;;12.23;8.20;;;;;;;;;;4374687;32;316754;-89
2023/10/31 00:48:03;;;;;;;12.37;7.97;;;;;;;;;;4375453;32;318091;-86
2023/10/31 00:50:30;;;;;;;14.70;7.20;;;;;;;;;;4356006;32;419204;-88
2023/10/31 00:52:56;;;;;;;11.43;7.80;;;;;;;;;;4374728;32;318327;-87
2023/10/31 00:55:23;;;;;;;14.53;7.63;;;;;;;;;;4363966;32;333169;-89
2023/10/31 00:57:51;;;;;;;13.67;7.13;;;;;;;;;;4375318;32;318024;-86
2023/10/31 01:00:18;;;;;;;12.13;5.80;;;;;;;;;;4355923;32;318649;-86
2023/10/31 01:02:45;;;;;;;12.17;6.27;;;;;;;;;;4373188;32;356432;-86
2023/10/31 01:05:12;;;;;;;8.57;5.43;;;;;;;;;;4364262;32;318105;-86
2023/10/31 01:07:39;;;;;;;8.93;3.40;;;;;;;;;;4375498;32;317232;-87
2023/10/31 01:10:06;;;;;;;7.23;3.70;;;;;;;;;;4364993;32;317269;-87
2023/10/31 01:12:33;;;;;;;7.33;3.83;;;;;;;;;;4368381;32;317508;-89
2023/10/31 01:15:01;;;;;;;6.67;3.60;;;;;;;;;;4374104;32;316779;-86
2023/10/31 01:17:27;;;;;;;5.30;3.43;;;;;;;;;;4362584;32;317888;-88
2023/10/31 01:19:54;;;;;;;10.50;4.33;;;;;;;;;;4375333;32;317787;-87
2023/10/31 01:22:21;;;;;;;6.93;3.33;;;;;;;;;;4357689;32;318416;-87
2023/10/31 01:24:47;;;;;;;6.63;3.60;;;;;;;;;;4373447;32;317335;-87
2023/10/31 01:27:14;;;;;;;10.97;3.93;;;;;;;;;;4365153;32;329357;-87
2023/10/31 01:29:41;;;;;;;5.97;3.57;;;;;;;;;;4375450;32;317658;-88
2023/10/31 01:32:09;;;;;;;7.47;3.83;;;;;;;;;;4364201;32;318156;-87
2023/10/31 01:34:36;;;;;;;4.80;3.60;;;;;;;;;;4370498;32;317506;-88
2023/10/31 01:37:02;;;;;;;7.23;4.70;;;;;;;;;;4368815;32;317351;-94
2023/10/31 01:39:29;;;;;;;18.63;5.83;;;;;;;;;;4362413;32;416548;-94
2023/10/31 01:41:56;;;;;;;10.93;6.10;;;;;;;;;;4375509;32;318185;-91
2023/10/31 01:44:22;;;;;;;10.93;6.03;;;;;;;;;;4357294;32;318823;-87
2023/10/31 01:46:49;;;;;;;14.13;6.07;;;;;;;;;;4375031;32;318873;-88
2023/10/31 01:49:17;;;;;;;10.03;5.93;;;;;;;;;;4365190;32;317977;-86
2023/10/31 01:51:46;;;;;;;8.50;5.33;;;;;;;;;;4374795;32;317905;-86
2023/10/31 01:54:14;;;;;;;12.37;5.17;;;;;;;;;;4358377;32;317762;-86
2023/10/31 01:56:43;;;;;;;16.43;6.27;;;;;;;;;;4375314;32;340886;-88
2023/10/31 01:59:10;;;;;;;8.23;4.93;;;;;;;;;;4372117;32;318565;-94
2023/10/31 02:01:39;;;;;;;11.23;5.40;;;;;;;;;;4402005;32;315897;-87
2023/10/31 02:04:06;;;;;;;8.47;5.70;;;;;;;;;;4389849;32;381781;-85
2023/10/31 02:06:35;;;;;;;16.10;6.33;;;;;;;;;;4383813;32;317256;-89
2023/10/31 02:09:02;;;;;;;9.50;5.50;;;;;;;;;;4389693;32;322494;-88
2023/10/31 02:11:29;;;;;;;10.50;5.67;;;;;;;;;;4379944;32;316807;-86
2023/10/31 02:13:55;;;;;;;10.33;5.33;;;;;;;;;;4387914;32;318189;-88
2023/10/31 02:16:22;;;;;;;7.37;4.47;;;;;;;;;;4372087;32;352160;-88
2023/10/31 02:18:49;;;;;;;8.33;4.83;;;;;;;;;;4390466;32;317328;-89
2023/10/31 02:21:17;;;;;;;9.53;4.97;;;;;;;;;;4378324;32;316666;-86
2023/10/31 02:23:57;;;;;;;9.50;4.77;;;;;;;;;;4389843;32;317443;-86
2023/10/31 02:26:24;;;;;;;12.53;5.57;;;;;;;;;;4374851;32;317490;-87
2023/10/31 02:28:50;;;;;;;9.80;4.73;;;;;;;;;;4390909;32;335194;-87
2023/10/31 02:31:17;;;;;;;6.00;4.10;;;;;;;;;;4375634;32;317604;-93
2023/10/31 02:33:44;;;;;;;5.80;4.07;;;;;;;;;;4376465;32;317968;-93
2023/10/31 02:36:10;;;;;;;7.77;4.33;;;;;;;;;;4362497;32;357312;-92
2023/10/31 02:38:37;;;;;;;9.03;4.60;;;;;;;;;;4377969;32;317611;-88
2023/10/31 02:41:05;;;;;;;10.23;4.00;;;;;;;;;;4367820;32;317290;-85
2023/10/31 02:43:33;;;;;;;9.47;4.17;;;;;;;;;;4378103;32;318532;-86
2023/10/31 02:46:00;;;;;;;5.03;3.90;;;;;;;;;;4376010;32;318169;-86
2023/10/31 02:48:27;;;;;;;6.87;4.37;;;;;;;;;;4359059;32;317640;-86
2023/10/31 02:50:54;;;;;;;9.43;4.70;;;;;;;;;;4377974;32;317764;-85
2023/10/31 02:53:20;;;;;;;7.63;4.40;;;;;;;;;;4366103;32;317410;-87
2023/10/31 02:55:47;;;;;;;10.50;4.73;;;;;;;;;;4375363;32;317646;-86
2023/10/31 02:58:17;;;;;;;10.63;4.50;;;;;;;;;;4360920;32;318402;-86
2023/10/31 03:00:44;;;;;;;10.93;4.23;;;;;;;;;;4375341;32;318655;-84
2023/10/31 03:03:10;;;;;;;6.57;3.60;;;;;;;;;;4365092;32;318356;-86
2023/10/31 03:05:37;;;;;;;5.60;3.47;;;;;;;;;;4377685;32;316519;-87
2023/10/31 03:08:04;;;;;;;5.93;3.43;;;;;;;;;;4367650;32;317890;-85
2023/10/31 03:10:31;;;;;;;4.00;3.00;;;;;;;;;;4369478;32;317587;-86
2023/10/31 03:12:59;;;;;;;5.43;3.30;;;;;;;;;;4375102;32;317189;-86
2023/10/31 03:15:27;;;;;;;7.33;3.17;;;;;;;;;;4364922;32;357219;-86
2023/10/31 03:17:54;;;;;;;6.83;3.57;;;;;;;;;;4375760;32;317368;-85
2023/10/31 03:20:20;;;;;;;8.43;4.17;;;;;;;;;;4357712;32;331826;-88
2023/10/31 03:22:47;;;;;;;8.73;5.23;;;;;;;;;;4375907;32;317465;-85
2023/10/31 03:25:14;;;;;;;10.13;6.00;;;;;;;;;;4364309;32;317425;-86
2023/10/31 03:27:40;;;;;;;11.60;6.23;;;;;;;;;;4375588;32;318429;-86
2023/10/31 03:30:09;;;;;;;8.40;5.77;;;;;;;;;;4359164;32;317708;-86
2023/10/31 03:32:37;;;;;;;8.10;4.97;;;;;;;;;;4371040;32;316600;-87
2023/10/31 03:35:04;;;;;;;6.30;4.60;;;;;;;;;;4369233;32;317503;-85
2023/10/31 03:37:31;;;;;;;7.83;4.83;;;;;;;;;;4376766;32;317310;-86
2023/10/31 03:39:58;;;;;;;11.13;5.47;;;;;;;;;;4377189;32;317118;-86
2023/10/31 03:42:24;;;;;;;6.67;4.20;;;;;;;;;;4357843;32;357563;-86
2023/10/31 03:44:51;;;;;;;9.50;4.50;;;;;;;;;;4377248;32;317050;-85
2023/10/31 03:47:18;;;;;;;12.13;4.70;;;;;;;;;;4364920;32;317461;-84
2023/10/31 03:49:46;;;;;;;9.27;5.00;;;;;;;;;;4374514;32;317730;-85
2023/10/31 03:52:12;;;;;;;6.57;4.20;;;;;;;;;;4359172;32;316839;-89
2023/10/31 03:54:39;;;;;;;12.17;4.30;;;;;;;;;;4376895;32;317209;-91
2023/10/31 03:57:06;;;;;;;6.17;4.27;;;;;;;;;;4366267;32;318206;-85
2023/10/31 03:59:33;;;;;;;10.07;5.43;;;;;;;;;;4374790;32;317015;-87
2023/10/31 04:01:59;;;;;;;8.50;4.73;;;;;;;;;;4386473;32;318464;-87
2023/10/31 04:04:26;;;;;;;8.03;5.20;;;;;;;;;;4373766;32;317315;-86
2023/10/31 04:06:54;;;;;;;7.87;4.43;;;;;;;;;;4391234;32;316738;-85
2023/10/31 04:09:21;;;;;;;11.37;5.40;;;;;;;;;;4380388;32;317227;-88
2023/10/31 04:11:47;;;;;;;22.73;13.63;;;;;;;;;;4391938;32;321177;-86
2023/10/31 04:14:14;;;;;;;24.23;16.83;;;;;;;;;;4375224;32;319473;-87
2023/10/31 04:16:45;;;;;;;21.27;15.50;;;;;;;;;;4390896;32;319525;-86
2023/10/31 04:19:12;;;;;;;23.23;13.40;;;;;;;;;;4379949;32;319257;-86
2023/10/31 04:21:39;;;;;;;28.37;16.50;;;;;;;;;;4390317;32;319193;-84
2023/10/31 04:24:07;;;;;;;22.57;13.83;;;;;;;;;;4371333;32;357767;-84
2023/10/31 04:26:34;;;;;;;20.37;11.73;;;;;;;;;;4369472;32;319298;-85
2023/10/31 04:29:01;;;;;;;14.43;7.90;;;;;;;;;;4375590;32;319385;-87
2023/10/31 04:31:27;;;;;;;9.80;5.97;;;;;;;;;;4366307;32;318332;-86
2023/10/31 04:33:54;;;;;;;6.93;4.43;;;;;;;;;;4376591;32;317324;-85
2023/10/31 04:36:21;;;;;;;8.90;4.90;;;;;;;;;;4357165;32;317396;-84
2023/10/31 04:38:47;;;;;;;7.23;4.40;;;;;;;;;;4375793;32;339738;-86
2023/10/31 04:41:15;;;;;;;6.10;4.60;;;;;;;;;;4366443;32;317632;-92
2023/10/31 04:43:42;;;;;;;9.93;4.90;;;;;;;;;;4377141;32;316376;-90
2023/10/31 04:46:09;;;;;;;9.33;4.60;;;;;;;;;;4365801;32;317798;-92
2023/10/31 04:48:36;;;;;;;9.53;4.43;;;;;;;;;;4372907;32;317269;-85
2023/10/31 04:51:03;;;;;;;9.30;5.37;;;;;;;;;;4376321;32;317390;-85
2023/10/31 04:53:29;;;;;;;14.20;6.33;;;;;;;;;;4362364;32;417751;-85
2023/10/31 04:55:56;;;;;;;9.23;5.13;;;;;;;;;;4355657;32;318167;-85
2023/10/31 04:58:24;;;;;;;5.47;4.30;;;;;;;;;;4357443;32;317538;-85
2023/10/31 05:00:51;;;;;;;15.93;5.90;;;;;;;;;;4354788;32;317566;-87
2023/10/31 05:03:18;;;;;;;7.33;4.33;;;;;;;;;;4364377;32;318397;-85
2023/10/31 05:05:44;;;;;;;11.27;4.90;;;;;;;;;;4362550;32;316537;-87
2023/10/31 05:08:12;;;;;;;11.60;5.80;;;;;;;;;;4358910;32;318438;-85
2023/10/31 05:10:38;;;;;;;12.50;5.60;;;;;;;;;;4375905;32;318536;-86
2023/10/31 05:13:05;;;;;;;12.00;6.53;;;;;;;;;;4365755;32;318078;-87
2023/10/31 05:15:33;;;;;;;15.03;7.83;;;;;;;;;;4375490;32;318786;-87
2023/10/31 05:18:00;;;;;;;24.50;11.13;;;;;;;;;;4367162;32;318428;-85
2023/10/31 05:20:26;;;;;;;28.83;12.90;;;;;;;;;;4358840;32;319137;-87
2023/10/31 05:22:53;;;;;;;18.03;10.27;;;;;;;;;;4376831;32;318731;-85
2023/10/31 05:25:20;;;;;;;15.93;9.87;;;;;;;;;;4367472;32;319464;-91
2023/10/31 05:27:48;;;;;;;19.93;12.73;;;;;;;;;;4367063;32;318513;-85
2023/10/31 05:30:15;;;;;;;44.73;16.83;;;;;;;;;;4375944;32;319766;-86
2023/10/31 05:32:44;;;;;;;24.83;14.93;;;;;;;;;;4339479;32;319739;-84
2023/10/31 05:37:52;;;;;;;33.37;17.77;;;;;;;;;;4365085;32;319747;-87
2023/10/31 05:40:18;;;;;;;35.73;16.93;;;;;;;;;;4374325;32;349623;-89
2023/10/31 05:42:45;;;;;;;22.50;14.00;;;;;;;;;;4364483;32;319836;-84
2023/10/31 05:45:12;;;;;;;21.77;10.57;;;;;;;;;;4379266;32;319523;-85
2023/10/31 05:47:38;;;;;;;23.87;11.97;;;;;;;;;;4368880;32;319701;-88
2023/10/31 05:50:09;;;;;;;15.70;9.20;;;;;;;;;;4376353;32;319587;-85
2023/10/31 05:52:36;;;;;;;20.77;12.83;;;;;;;;;;4356365;32;317948;-95
2023/10/31 05:55:03;;;;;;;23.67;12.87;;;;;;;;;;4374883;32;319930;-84
2023/10/31 05:57:29;;;;;;;32.77;16.37;;;;;;;;;;4362409;32;319129;-89
2023/10/31 05:59:56;;;;;;;44.90;17.37;;;;;;;;;;4376230;32;319280;-86
2023/10/31 06:02:23;;;;;;;43.80;20.53;;;;;;;;;;4379287;32;319658;-85
2023/10/31 06:04:49;;;;;;;47.97;24.43;;;;;;;;;;4363730;32;319532;-85
2023/10/31 06:07:17;;;;;;;47.37;23.40;;;;;;;;;;4378200;32;319622;-85
2023/10/31 06:09:44;;;;;;;50.93;27.00;;;;;;;;;;4368816;32;319392;-84
2023/10/31 06:12:11;;;;;;;38.23;24.77;;;;;;;;;;4385716;32;319145;-88
2023/10/31 06:14:38;;;;;;;45.17;25.80;;;;;;;;;;4372257;32;318755;-94
2023/10/31 06:17:05;;;;;;;47.43;25.77;;;;;;;;;;4381988;32;319319;-89
2023/10/31 06:19:35;;;;;;;51.17;24.67;;;;;;;;;;4368098;32;319839;-84
2023/10/31 06:22:01;;;;;;;38.40;22.17;;;;;;;;;;4376878;32;319192;-86
2023/10/31 06:24:29;;;;;;;28.07;17.60;;;;;;;;;;4366889;32;319363;-86
2023/10/31 06:26:56;;;;;;;21.70;15.23;;;;;;;;;;4369346;32;319355;-91
2023/10/31 06:29:23;;;;;;;31.17;15.60;;;;;;;;;;4374384;32;318946;-89
2023/10/31 06:31:49;;;;;;;28.60;14.30;;;;;;;;;;4366127;32;319803;-87
2023/10/31 06:34:16;;;;;;;27.67;15.30;;;;;;;;;;4374599;32;319278;-85
2023/10/31 06:36:43;;;;;;;30.67;14.90;;;;;;;;;;4348059;32;319802;-85
2023/10/31 06:39:09;;;;;;;33.87;17.13;;;;;;;;;;4363466;32;318918;-86
2023/10/31 06:41:38;;;;;;;36.47;16.50;;;;;;;;;;4358625;32;320104;-86
2023/10/31 06:44:05;;;;;;;41.53;18.23;;;;;;;;;;4372884;32;319628;-86
2023/10/31 06:46:31;;;;;;;40.27;19.43;;;;;;;;;;4349345;32;336970;-85
2023/10/31 06:48:58;;;;;;;52.50;29.33;;;;;;;;;;4351050;32;319451;-84
2023/10/31 06:51:26;;;;;;;63.20;39.07;;;;;;;;;;4358171;32;319636;-85
2023/10/31 06:53:53;;;;;;;81.53;44.90;;;;;;;;;;4349185;32;319541;-84
2023/10/31 06:56:20;;;;;;;80.17;43.27;;;;;;;;;;4371818;32;319864;-88
2023/10/31 06:58:48;;;;;;;66.87;38.83;;;;;;;;;;4358848;32;348095;-86
2023/10/31 07:01:18;;;;;;;78.10;38.43;;;;;;;;;;4380763;32;319970;-85
2023/10/31 07:03:45;;;;;;;55.50;30.70;;;;;;;;;;4363201;32;318451;-85
2023/10/31 07:06:11;;;;;;;35.90;21.23;;;;;;;;;;4365630;32;319760;-85
2023/10/31 07:08:38;;;;;;;34.77;17.67;;;;;;;;;;4370517;32;320042;-84
2023/10/31 07:11:05;;;;;;;24.20;15.23;;;;;;;;;;4382457;32;319463;-83
2023/10/31 07:13:31;;;;;;;19.00;12.53;;;;;;;;;;4372633;32;396851;-85
2023/10/31 07:15:59;;;;;;;21.33;12.10;;;;;;;;;;4392697;32;319455;-87
2023/10/31 07:18:26;;;;;;;23.30;13.77;;;;;;;;;;4405290;32;319454;-84
2023/10/31 07:20:54;;;;;;;24.50;12.80;;;;;;;;;;4376555;32;419976;-84
2023/10/31 07:23:20;;;;;;;17.87;10.63;;;;;;;;;;4389305;32;318773;-86
2023/10/31 07:25:47;;;;;;;17.53;10.60;;;;;;;;;;4381053;32;319491;-86
2023/10/31 07:28:14;;;;;;;25.37;13.27;;;;;;;;;;4390460;32;319367;-83
2023/10/31 07:30:40;;;;;;;23.80;13.07;;;;;;;;;;4372558;32;340753;-85
2023/10/31 07:33:08;;;;;;;23.97;14.37;;;;;;;;;;4376316;32;319262;-85
2023/10/31 07:35:36;;;;;;;31.33;13.80;;;;;;;;;;4363922;32;319216;-85
2023/10/31 07:38:03;;;;;;;26.40;15.00;;;;;;;;;;4361737;32;319132;-87
2023/10/31 07:40:29;;;;;;;33.77;17.47;;;;;;;;;;4351178;32;319150;-84
2023/10/31 07:42:56;;;;;;;37.90;18.10;;;;;;;;;;4360391;32;319889;-86
2023/10/31 07:45:23;;;;;;;41.10;21.40;;;;;;;;;;4361616;32;319639;-85
2023/10/31 07:47:49;;;;;;;33.27;19.43;;;;;;;;;;4364888;32;320052;-83
2023/10/31 07:50:17;;;;;;;41.53;20.37;;;;;;;;;;4373780;32;319449;-84
2023/10/31 07:52:46;;;;;;;36.03;19.40;;;;;;;;;;4358963;32;319483;-83
2023/10/31 07:55:13;;;;;;;37.57;18.80;;;;;;;;;;4375217;32;320001;-84
2023/10/31 07:57:40;;;;;;;35.77;17.63;;;;;;;;;;4360925;32;319498;-87
2023/10/31 08:00:11;;;;;;;42.77;18.53;;;;;;;;;;4361487;32;319045;-85
2023/10/31 08:02:38;;;;;;;25.90;15.07;;;;;;;;;;4344253;32;319483;-81
2023/10/31 08:05:06;;;;;;;24.60;13.73;;;;;;;;;;4360720;32;319941;-83
2023/10/31 08:07:34;;;;;;;29.17;13.53;;;;;;;;;;4351123;32;319513;-85
2023/10/31 08:10:00;;;;;;;26.63;15.23;;;;;;;;;;4360767;32;319510;-83
2023/10/31 08:12:27;;;;;;;30.20;15.10;;;;;;;;;;4358633;32;319600;-83
2023/10/31 08:14:54;;;;;;;30.73;15.07;;;;;;;;;;4339091;32;420690;-83
2023/10/31 08:17:20;;;;;;;34.90;16.77;;;;;;;;;;4360518;32;320102;-84
2023/10/31 08:19:48;;;;;;;34.60;17.50;;;;;;;;;;4351086;32;319005;-83
2023/10/31 08:22:15;;;;;;;32.30;16.83;;;;;;;;;;4358295;32;319673;-87
2023/10/31 08:24:43;;;;;;;29.83;16.30;;;;;;;;;;4343440;32;319811;-87
2023/10/31 08:27:11;;;;;;;28.63;13.80;;;;;;;;;;4361119;32;319508;-87
2023/10/31 08:29:37;;;;;;;23.70;13.70;;;;;;;;;;4365784;32;319539;-88
2023/10/31 08:32:05;;;;;;;25.67;13.80;;;;;;;;;;4376055;32;319970;-88
2023/10/31 08:34:32;;;;;;;20.33;10.87;;;;;;;;;;4365029;32;319643;-87
2023/10/31 08:37:00;;;;;;;21.63;11.53;;;;;;;;;;4368671;32;319967;-88
2023/10/31 08:39:27;;;;;;;23.37;11.30;;;;;;;;;;4376274;32;319323;-87
2023/10/31 08:41:59;;;;;;;20.37;11.93;;;;;;;;;;4362004;32;419437;-82
2023/10/31 08:44:26;;;;;;;17.17;10.07;;;;;;;;;;4374068;32;319121;-84
2023/10/31 08:46:53;;;;;;;24.67;9.67;;;;;;;;;;4354175;32;419406;-87
2023/10/31 08:49:19;;;;;;;16.17;10.23;;;;;;;;;;4375463;32;318186;-85
2023/10/31 08:51:46;;;;;;;19.10;11.17;;;;;;;;;;4364079;32;319051;-89
2023/10/31 08:54:13;;;;;;;17.67;11.57;;;;;;;;;;4375013;32;319721;-88
2023/10/31 08:56:40;;;;;;;20.20;11.33;;;;;;;;;;4357105;32;329326;-87
2023/10/31 08:59:08;;;;;;;20.02;10.45;;;;;;;;;;4367922;32;319498;-88
2023/10/31 09:01:34;;;;;;;20.73;11.47;;;;;;;;;;4368113;32;319626;-88
2023/10/31 09:04:01;;;;;;;16.42;10.80;;;;;;;;;;4375806;32;319736;-88
2023/10/31 09:06:28;;;;;;;24.33;10.63;;;;;;;;;;4365196;32;319708;-88
2023/10/31 09:08:55;;;;;;;26.90;11.90;;;;;;;;;;4366841;32;318258;-88
2023/10/31 09:11:21;;;;;;;27.50;12.30;;;;;;;;;;4361305;32;324581;-88
2023/10/31 09:13:48;;;;;;;20.27;10.00;;;;;;;;;;4372897;32;319231;-89
2023/10/31 09:16:16;;;;;;;23.73;10.38;;;;;;;;;;4382695;32;318692;-89
2023/10/31 09:18:43;;;;;;;16.67;9.52;;;;;;;;;;4364612;32;319453;-87
2023/10/31 09:21:10;;;;;;;15.33;9.27;;;;;;;;;;4379580;32;317983;-87
2023/10/31 09:23:37;;;;;;;17.33;9.53;;;;;;;;;;4353796;32;318413;-88
2023/10/31 09:26:04;;;;;;;14.47;8.70;;;;;;;;;;4380528;32;318211;-89
2023/10/31 09:28:31;;;;;;;36.75;10.02;;;;;;;;;;4371296;32;317785;-86
2023/10/31 09:30:59;;;;;;;16.20;8.40;;;;;;;;;;4371902;32;320214;-87
2023/10/31 09:33:27;;;;;;;15.27;8.25;;;;;;;;;;4375613;32;318304;-90
2023/10/31 09:35:54;;;;;;;16.58;9.80;;;;;;;;;;4369302;32;417723;-90
2023/10/31 09:38:21;;;;;;;47.65;19.48;;;;;;;;;;4388954;32;318637;-90
2023/10/31 09:40:48;;;;;;;22.83;10.70;;;;;;;;;;4370046;32;333818;-90
2023/10/31 09:43:15;;;;;;;27.95;13.02;;;;;;;;;;4381498;32;319878;-86
2023/10/31 09:45:42;;;;;;;13.55;7.65;;;;;;;;;;4364689;32;319770;-89
2023/10/31 09:48:09;;;;;;;11.23;5.95;;;;;;;;;;4374097;32;334108;-88
2023/10/31 09:50:38;;;;;;;14.40;6.53;;;;;;;;;;4361903;32;318413;-91
2023/10/31 09:53:06;;;;;;;16.40;7.55;;;;;;;;;;4372851;32;317531;-89
2023/10/31 09:55:33;;;;;;;15.32;7.15;;;;;;;;;;4365169;32;318188;-84
2023/10/31 09:58:01;;;;;;;15.00;6.00;;;;;;;;;;4368294;32;318078;-86
2023/10/31 10:00:27;;;;;;;16.37;6.20;;;;;;;;;;4361036;32;319289;-86
2023/10/31 10:02:55;;;;;;;10.02;4.47;;;;;;;;;;4354426;32;416223;-88
2023/10/31 10:05:24;;;;;;;10.00;5.00;;;;;;;;;;4374628;32;318614;-85
2023/10/31 10:07:56;;;;;;;8.10;4.12;;;;;;;;;;4362223;32;349032;-86
2023/10/31 10:10:23;;;;;;;9.63;4.90;;;;;;;;;;4373753;32;318374;-86
2023/10/31 10:12:52;;;;;;;9.73;4.50;;;;;;;;;;4357824;32;317906;-89
2023/10/31 10:15:18;;;;;;;15.07;4.97;;;;;;;;;;4374053;32;317914;-86
2023/10/31 10:17:50;;;;;;;11.48;5.43;;;;;;;;;;4364548;32;318767;-87
2023/10/31 10:20:18;;;;;;;9.20;4.28;;;;;;;;;;4374107;32;318544;-87
2023/10/31 10:22:46;;;;;;;12.27;4.12;;;;;;;;;;4346380;32;317724;-87
2023/10/31 10:25:17;;;;;;;12.45;3.33;;;;;;;;;;4377936;32;317997;-88
2023/10/31 10:27:44;;;;;;;9.43;3.33;;;;;;;;;;4377729;32;318556;-89
2023/10/31 10:30:12;;;;;;;17.83;4.05;;;;;;;;;;4382424;32;316216;-89
2023/10/31 10:32:38;;;;;;;9.85;4.05;;;;;;;;;;4363108;32;318433;-88
2023/10/31 10:35:07;;;;;;;16.25;4.22;;;;;;;;;;4352958;32;317592;-88
2023/10/31 10:37:38;;;;;;;8.70;3.03;;;;;;;;;;4364134;32;318419;-87
2023/10/31 10:40:07;;;;;;;8.65;4.03;;;;;;;;;;4374109;32;316715;-88
2023/10/31 10:42:44;;;;;;;6.60;3.33;;;;;;;;;;4362532;32;317061;-86
2023/10/31 10:45:12;;;;;;;14.43;4.87;;;;;;;;;;4375176;32;317441;-90
2023/10/31 10:47:41;;;;;;;10.93;3.22;;;;;;;;;;4366738;32;318549;-88
2023/10/31 10:50:09;;;;;;;8.85;3.58;;;;;;;;;;4376933;32;318290;-88
2023/10/31 10:52:43;;;;;;;6.97;3.30;;;;;;;;;;4365008;32;349767;-87
2023/10/31 10:55:16;;;;;;;8.30;4.35;;;;;;;;;;4377072;32;317346;-89
2023/10/31 10:57:54;;;;;;;14.77;3.90;;;;;;;;;;4366109;32;317524;-89
2023/10/31 11:00:24;;;;;;;11.55;3.15;;;;;;;;;;4375490;32;319191;-89
2023/10/31 11:02:52;;;;;;;6.45;2.78;;;;;;;;;;4358713;32;318584;-88
2023/10/31 11:05:20;;;;;;;9.43;4.47;;;;;;;;;;4375178;32;317416;-88
2023/10/31 11:07:48;;;;;;;10.70;5.93;;;;;;;;;;4362630;32;357927;-89
2023/10/31 11:10:15;;;;;;;9.90;5.03;;;;;;;;;;4374543;32;318792;-88
2023/10/31 11:12:45;;;;;;;12.65;5.00;;;;;;;;;;4357425;32;317615;-88
2023/10/31 11:15:15;;;;;;;11.73;4.15;;;;;;;;;;4375560;32;318078;-90
2023/10/31 11:17:44;;;;;;;13.13;4.32;;;;;;;;;;4364509;32;350170;-87
2023/10/31 11:20:14;;;;;;;9.65;4.12;;;;;;;;;;4378368;32;346003;-89
2023/10/31 11:22:42;;;;;;;9.35;4.90;;;;;;;;;;4357153;32;317544;-89
2023/10/31 11:25:10;;;;;;;9.88;4.35;;;;;;;;;;4375968;32;317431;-88
2023/10/31 11:27:37;;;;;;;9.25;4.18;;;;;;;;;;4365695;32;317056;-88
2023/10/31 11:30:09;;;;;;;10.07;4.60;;;;;;;;;;4374979;32;350158;-87
2023/10/31 11:32:35;;;;;;;10.32;3.65;;;;;;;;;;4364984;32;318735;-92
2023/10/31 11:35:02;;;;;;;12.77;3.45;;;;;;;;;;4373736;32;318764;-87
2023/10/31 11:37:34;;;;;;;7.43;3.28;;;;;;;;;;4364340;32;317877;-89
2023/10/31 11:40:18;;;;;;;12.00;3.33;;;;;;;;;;4347383;32;317787;-88
2023/10/31 11:42:48;;;;;;;6.73;3.23;;;;;;;;;;4343667;32;325887;-89
2023/10/31 11:45:28;;;;;;;6.35;2.70;;;;;;;;;;4361162;32;318040;-89
2023/10/31 11:47:55;;;;;;;8.10;3.12;;;;;;;;;;4348762;32;416464;-89
2023/10/31 11:50:22;;;;;;;6.00;2.65;;;;;;;;;;4361628;32;317406;-90
2023/10/31 11:53:00;;;;;;;10.73;3.42;;;;;;;;;;4344685;32;318078;-88
2023/10/31 11:55:26;;;;;;;9.07;3.10;;;;;;;;;;4359015;32;317531;-87
2023/10/31 11:57:53;;;;;;;10.18;3.70;;;;;;;;;;4350939;32;317392;-87
2023/10/31 12:00:24;;;;;;;16.87;4.68;;;;;;;;;;4360564;32;318939;-88
2023/10/31 12:03:10;;;;;;;9.88;4.30;;;;;;;;;;4344636;32;318568;-89
2023/10/31 12:05:36;;;;;;;9.27;4.03;;;;;;;;;;4355469;32;317677;-88
2023/10/31 12:08:03;;;;;;;8.32;4.18;;;;;;;;;;4374632;32;317577;-90
2023/10/31 12:10:31;;;;;;;8.57;3.75;;;;;;;;;;4363684;32;334352;-88
2023/10/31 12:12:58;;;;;;;8.20;3.75;;;;;;;;;;4369189;32;316512;-85
2023/10/31 12:15:25;;;;;;;7.95;3.35;;;;;;;;;;4375870;32;318085;-87
2023/10/31 12:17:52;;;;;;;12.32;4.45;;;;;;;;;;4364887;32;317490;-85
2023/10/31 12:20:20;;;;;;;12.77;4.25;;;;;;;;;;4375838;32;318441;-85
2023/10/31 12:22:47;;;;;;;10.75;5.57;;;;;;;;;;4356798;32;319017;-83
2023/10/31 12:25:14;;;;;;;8.52;4.60;;;;;;;;;;4374798;32;318491;-84
2023/10/31 12:27:45;;;;;;;7.45;4.97;;;;;;;;;;4365766;32;316882;-86
2023/10/31 12:30:12;;;;;;;15.10;5.40;;;;;;;;;;4374585;32;318037;-86
2023/10/31 12:32:41;;;;;;;10.48;4.85;;;;;;;;;;4357585;32;317972;-88
2023/10/31 12:35:10;;;;;;;11.40;4.70;;;;;;;;;;4374119;32;318793;-87
2023/10/31 12:37:38;;;;;;;11.68;3.55;;;;;;;;;;4364648;32;318220;-87
2023/10/31 12:40:09;;;;;;;7.55;3.47;;;;;;;;;;4373634;32;318518;-87
2023/10/31 12:42:36;;;;;;;9.35;4.37;;;;;;;;;;4363942;32;318072;-86
2023/10/31 12:45:03;;;;;;;6.65;3.00;;;;;;;;;;4375363;32;317516;-87
2023/10/31 12:47:30;;;;;;;4.75;3.05;;;;;;;;;;4365971;32;317616;-87
2023/10/31 12:50:15;;;;;;;4.72;2.37;;;;;;;;;;4375554;32;317791;-87
2023/10/31 12:52:51;;;;;;;4.87;2.42;;;;;;;;;;4359105;32;316663;-87
2023/10/31 12:55:20;;;;;;;6.57;3.12;;;;;;;;;;4374585;32;317574;-87
2023/10/31 12:57:47;;;;;;;7.43;3.33;;;;;;;;;;4363801;32;335068;-87
2023/10/31 13:00:16;;;;;;;7.07;2.60;;;;;;;;;;4375427;32;318480;-88
2023/10/31 13:02:43;;;;;;;8.18;2.47;;;;;;;;;;4358460;32;317776;-87
2023/10/31 13:05:13;;;;;;;10.07;2.83;;;;;;;;;;4375460;32;317349;-86
2023/10/31 13:07:40;;;;;;;7.35;3.65;;;;;;;;;;4364103;32;318619;-88
2023/10/31 13:10:10;;;;;;;8.23;3.55;;;;;;;;;;4375469;32;317110;-86
2023/10/31 13:12:37;;;;;;;10.30;3.58;;;;;;;;;;4340824;32;332987;-89
2023/10/31 13:15:07;;;;;;;7.03;3.22;;;;;;;;;;4374196;32;319034;-85
2023/10/31 13:17:36;;;;;;;10.05;3.90;;;;;;;;;;4365916;32;317809;-85
2023/10/31 13:20:03;;;;;;;12.27;2.65;;;;;;;;;;4376090;32;318265;-86
2023/10/31 13:22:30;;;;;;;9.00;3.78;;;;;;;;;;4363611;32;318583;-86
2023/10/31 13:24:57;;;;;;;5.75;2.85;;;;;;;;;;4367549;32;317254;-86
2023/10/31 13:27:25;;;;;;;10.27;3.12;;;;;;;;;;4375230;32;317268;-87
2023/10/31 13:29:52;;;;;;;11.80;4.28;;;;;;;;;;4348573;32;317960;-85
2023/10/31 13:32:20;;;;;;;7.70;3.28;;;;;;;;;;4371143;32;317838;-87
2023/10/31 13:34:47;;;;;;;16.10;4.55;;;;;;;;;;4343719;32;317049;-88
2023/10/31 13:37:14;;;;;;;8.93;4.28;;;;;;;;;;4377378;32;318957;-88
2023/10/31 13:39:41;;;;;;;11.02;4.80;;;;;;;;;;4348308;32;340466;-88
2023/10/31 13:42:10;;;;;;;24.55;7.75;;;;;;;;;;4358750;32;318849;-87
2023/10/31 13:44:38;;;;;;;13.10;6.68;;;;;;;;;;4346106;32;318594;-86
2023/10/31 13:47:05;;;;;;;14.85;5.65;;;;;;;;;;4359208;32;318371;-86
2023/10/31 13:49:32;;;;;;;12.43;5.95;;;;;;;;;;4362717;32;319580;-84
2023/10/31 13:51:58;;;;;;;15.90;5.87;;;;;;;;;;4372050;32;318791;-87
2023/10/31 13:54:25;;;;;;;16.70;5.28;;;;;;;;;;4372791;32;319036;-88
2023/10/31 13:56:53;;;;;;;21.00;6.28;;;;;;;;;;4336776;32;318611;-85
2023/10/31 13:59:19;;;;;;;11.32;5.80;;;;;;;;;;4372349;32;318363;-86
2023/10/31 14:01:48;;;;;;;13.75;7.72;;;;;;;;;;4361513;32;318070;-86
2023/10/31 14:04:15;;;;;;;20.50;8.43;;;;;;;;;;4372232;32;318563;-85
2023/10/31 14:06:41;;;;;;;15.63;7.60;;;;;;;;;;4354866;32;318769;-87
2023/10/31 14:09:10;;;;;;;21.05;9.15;;;;;;;;;;4371403;32;318577;-87
2023/10/31 14:11:38;;;;;;;23.33;8.57;;;;;;;;;;4363750;32;319153;-85
2023/10/31 14:14:06;;;;;;;22.30;8.60;;;;;;;;;;4373468;32;318923;-88
2023/10/31 14:16:33;;;;;;;26.05;9.98;;;;;;;;;;4364041;32;348338;-89
2023/10/31 14:19:02;;;;;;;24.37;8.65;;;;;;;;;;4366378;32;318349;-87
2023/10/31 14:21:29;;;;;;;14.55;7.70;;;;;;;;;;4366842;32;318863;-86
2023/10/31 14:23:56;;;;;;;23.40;10.07;;;;;;;;;;4375267;32;317968;-86